Aeroporto :
LOGIN :

Iscrizione | Disclaimer

   EN    FR    IT 

 










Sommario :    VFR   VFR Marginale   IFR   IFR Intensivo   IFR Molto Intensivo
Visibilità : 
Base nubi : 
>= 8 km
>= 3000ft
5 / 8 km
1000 / 3000 ft
1500m / 5 km
500 / 1000 ft
800 / 1500m
200 / 500 ft
< 800m
< 200 ft
Simboli :   Temporali  Nebbia  Neve Forte  Precipitazioni Forti  Vento > 20 kt
SIGMETs :   Varie  Temporali  Ghiacco  Turbolenza  Onda orograficha  Ceneri Vulcaniche






- Altitudine del aeroporto : 648 ft
- Codice IATA : INI


LYNI - Nis Constantine

ULTIMO METAR :
  • 071830Z 00000KT 4000 BR FEW047 05/04 Q1019 NOSIG

METARs OBSOLETI :
  • 071800Z VRB01KT 5000 BR FEW047 05/04 Q1019 TEMPO 3000
  • 071730Z VRB01KT 6000 NSC 05/04 Q1019 TEMPO 4000 BR
  • 071700Z 10003KT 060V120 5000 BR NSC 05/04 Q1019 BECMG 3000
  • 071630Z 12003KT 090V170 6000 NSC 05/05 Q1019 BECMG 3000 BR
  • 071600Z VRB02KT 7000 MIFG FEW050 06/05 Q1019 BECMG 4000 BR

TAF TAF LYNI
Valido dal 07 a 18 ore il 08 a 18 ore UTC


071700Z 0718/0818 13005KT 4000 BR NSC TX10/0813Z TN01/0805Z
TEMPO 0802/0808 0600 FG BKN003
BECMG 0810/0812 7000 NSW



MetMap, La meteo Aeronautica in un colpo d'occhio ! - Copyright ORBIFLY Dicembre 2007 - Disclaimer

ORBIFLY MET'MAP TEAM :

Programmazione e sviluppo : Alexandra Zaïnal
Concezione : Baudouin d'Aumeries
Aiuto per la programmazione : Marc-Olivier Méhu
Supporto tecnico e logistico : Manuel Goepfert
Aiuto per la traduzione : Arnaldo La Scala

Contatto : metmap@orbifly.com




FONTI E CREDITI :

   NOAA